LCR YSBK-YARM
Flight info
| Callsign | LCR |
|---|---|
| Flight time | 0h 52m |
| Altitude | 30000 |
| Route | N0315F300 DCT KAMBA V258 MATLA W347 ARM DCT |
| Aircraft | SF50/L-SBDE2GRWXY/LB2 |
Departure
| Time | 2026-04-26 07:19 |
|---|---|
| Airport | Sydney Bankstown Airport (YSBK) |
Arrival
| Time | 2026-04-26 08:11 |
|---|---|
| Airport | Armidale Airport (YARM) |
| Time | Latitude | Longitude | Altitude | Speed | Heading |
|---|---|---|---|---|---|
| 2026-04-26 07:04 | -33.91795 | 150.99072 | 27 ft | 0 kts | 203° |
| 2026-04-26 07:11 | -33.91849 | 150.99017 | 27 ft | 6 kts | 240° |
| 2026-04-26 07:11 | -33.91870 | 150.98974 | 27 ft | 6 kts | 240° |
| 2026-04-26 07:11 | -33.91890 | 150.98941 | 27 ft | 2 kts | 175° |
| 2026-04-26 07:11 | -33.91894 | 150.98942 | 27 ft | 0 kts | 150° |
| 2026-04-26 07:12 | -33.91932 | 150.98969 | 27 ft | 13 kts | 150° |
| 2026-04-26 07:12 | -33.92019 | 150.98947 | 27 ft | 15 kts | 213° |
| 2026-04-26 07:12 | -33.92046 | 150.98870 | 27 ft | 12 kts | 303° |
| 2026-04-26 07:12 | -33.91986 | 150.98763 | 27 ft | 17 kts | 303° |
| 2026-04-26 07:13 | -33.91917 | 150.98687 | 27 ft | 11 kts | 347° |
| 2026-04-26 07:13 | -33.91870 | 150.98629 | 27 ft | 12 kts | 304° |
| 2026-04-26 07:13 | -33.91836 | 150.98531 | 27 ft | 12 kts | 268° |
| 2026-04-26 07:13 | -33.91898 | 150.98491 | 27 ft | 12 kts | 180° |
| 2026-04-26 07:14 | -33.91959 | 150.98492 | 27 ft | 4 kts | 179° |
| 2026-04-26 07:14 | -33.91962 | 150.98492 | 27 ft | 0 kts | 179° |
| 2026-04-26 07:18 | -33.92016 | 150.98493 | 26 ft | 16 kts | 176° |
| 2026-04-26 07:19 | -33.92135 | 150.98675 | 27 ft | 56 kts | 124° |
| 2026-04-26 07:19 | -33.92461 | 150.99256 | 112 ft | 101 kts | 120° |
| 2026-04-26 07:19 | -33.92878 | 150.99981 | 508 ft | 108 kts | 120° |
| 2026-04-26 07:19 | -33.93124 | 151.00824 | 876 ft | 116 kts | 73° |
| 2026-04-26 07:20 | -33.92549 | 151.01502 | 1250 ft | 132 kts | 15° |
| 2026-04-26 07:20 | -33.91590 | 151.01226 | 1572 ft | 161 kts | 327° |
| 2026-04-26 07:20 | -33.90917 | 151.00100 | 2085 ft | 168 kts | 307° |
| 2026-04-26 07:20 | -33.89984 | 150.99366 | 2610 ft | 163 kts | 354° |
| 2026-04-26 07:21 | -33.88872 | 150.99570 | 3100 ft | 165 kts | 15° |
| 2026-04-26 07:21 | -33.87746 | 150.99891 | 3611 ft | 167 kts | 13° |
| 2026-04-26 07:21 | -33.86606 | 151.00204 | 4110 ft | 169 kts | 14° |
| 2026-04-26 07:21 | -33.85470 | 151.00593 | 4578 ft | 172 kts | 28° |
| 2026-04-26 07:22 | -33.84627 | 151.01598 | 5046 ft | 173 kts | 51° |
| 2026-04-26 07:22 | -33.83857 | 151.02728 | 5525 ft | 174 kts | 49° |
| 2026-04-26 07:22 | -33.83023 | 151.03788 | 5997 ft | 176 kts | 45° |
| 2026-04-26 07:22 | -33.82158 | 151.04815 | 6443 ft | 178 kts | 44° |
| 2026-04-26 07:23 | -33.81273 | 151.05860 | 6898 ft | 179 kts | 44° |
| 2026-04-26 07:23 | -33.80381 | 151.06916 | 7341 ft | 180 kts | 45° |
| 2026-04-26 07:23 | -33.79483 | 151.07979 | 7766 ft | 182 kts | 45° |
| 2026-04-26 07:23 | -33.78575 | 151.09054 | 8185 ft | 184 kts | 45° |
| 2026-04-26 07:24 | -33.77659 | 151.10138 | 8591 ft | 185 kts | 45° |
| 2026-04-26 07:24 | -33.76736 | 151.11228 | 8992 ft | 187 kts | 45° |
| 2026-04-26 07:24 | -33.75803 | 151.12327 | 9387 ft | 188 kts | 45° |
| 2026-04-26 07:24 | -33.74865 | 151.13436 | 9765 ft | 190 kts | 45° |
| 2026-04-26 07:25 | -33.73917 | 151.14553 | 10143 ft | 192 kts | 45° |
| 2026-04-26 07:25 | -33.72961 | 151.15682 | 10527 ft | 193 kts | 45° |
| 2026-04-26 07:25 | -33.71997 | 151.16818 | 10902 ft | 195 kts | 45° |
| 2026-04-26 07:25 | -33.71026 | 151.17961 | 11282 ft | 196 kts | 45° |
| 2026-04-26 07:26 | -33.70047 | 151.19114 | 11658 ft | 198 kts | 45° |
| 2026-04-26 07:26 | -33.69061 | 151.20278 | 12027 ft | 200 kts | 45° |
| 2026-04-26 07:26 | -33.68065 | 151.21450 | 12405 ft | 201 kts | 45° |
| 2026-04-26 07:26 | -33.67064 | 151.22627 | 12798 ft | 202 kts | 45° |
| 2026-04-26 07:27 | -33.66061 | 151.23809 | 13179 ft | 202 kts | 45° |
| 2026-04-26 07:27 | -33.65067 | 151.24981 | 13558 ft | 203 kts | 45° |
| 2026-04-26 07:27 | -33.64057 | 151.26169 | 13941 ft | 204 kts | 45° |
| 2026-04-26 07:27 | -33.63044 | 151.27362 | 14321 ft | 205 kts | 45° |
| 2026-04-26 07:28 | -33.62023 | 151.28562 | 14704 ft | 205 kts | 45° |
| 2026-04-26 07:28 | -33.61003 | 151.29763 | 15070 ft | 206 kts | 45° |
| 2026-04-26 07:28 | -33.59975 | 151.30969 | 15448 ft | 207 kts | 46° |
| 2026-04-26 07:28 | -33.58945 | 151.32182 | 15810 ft | 208 kts | 45° |
| 2026-04-26 07:29 | -33.57910 | 151.33398 | 16163 ft | 209 kts | 46° |
| 2026-04-26 07:29 | -33.56869 | 151.34620 | 16532 ft | 209 kts | 46° |
| 2026-04-26 07:29 | -33.55825 | 151.35846 | 16890 ft | 210 kts | 46° |
| 2026-04-26 07:29 | -33.54779 | 151.37071 | 17252 ft | 211 kts | 46° |
| 2026-04-26 07:30 | -33.53728 | 151.38302 | 17598 ft | 212 kts | 46° |
| 2026-04-26 07:30 | -33.52670 | 151.39539 | 17954 ft | 212 kts | 46° |
| 2026-04-26 07:30 | -33.51613 | 151.40780 | 18307 ft | 214 kts | 46° |
| 2026-04-26 07:30 | -33.50547 | 151.42025 | 18650 ft | 214 kts | 45° |
| 2026-04-26 07:31 | -33.49297 | 151.43001 | 18948 ft | 220 kts | 20° |
| 2026-04-26 07:31 | -33.47770 | 151.43211 | 19284 ft | 223 kts | 3° |
| 2026-04-26 07:31 | -33.46215 | 151.43248 | 19611 ft | 224 kts | 4° |
| 2026-04-26 07:31 | -33.44654 | 151.43339 | 19945 ft | 225 kts | 5° |
| 2026-04-26 07:32 | -33.43089 | 151.43449 | 20272 ft | 226 kts | 5° |
| 2026-04-26 07:32 | -33.41511 | 151.43551 | 20601 ft | 228 kts | 5° |
| 2026-04-26 07:32 | -33.39920 | 151.43616 | 20927 ft | 230 kts | 2° |
| 2026-04-26 07:32 | -33.38320 | 151.43609 | 21260 ft | 230 kts | 1° |
| 2026-04-26 07:33 | -33.36719 | 151.43613 | 21625 ft | 230 kts | 2° |
| 2026-04-26 07:33 | -33.35119 | 151.43631 | 21981 ft | 230 kts | 2° |
| 2026-04-26 07:33 | -33.33537 | 151.43648 | 22333 ft | 230 kts | 2° |
| 2026-04-26 07:33 | -33.31937 | 151.43661 | 22688 ft | 230 kts | 2° |
| 2026-04-26 07:34 | -33.30342 | 151.43676 | 23035 ft | 230 kts | 3° |
| 2026-04-26 07:34 | -33.28742 | 151.43691 | 23379 ft | 229 kts | 2° |
| 2026-04-26 07:34 | -33.27147 | 151.43706 | 23721 ft | 229 kts | 3° |
| 2026-04-26 07:34 | -33.25552 | 151.43721 | 24052 ft | 229 kts | 2° |
| 2026-04-26 07:35 | -33.23956 | 151.43734 | 24382 ft | 229 kts | 3° |
| 2026-04-26 07:35 | -33.22958 | 151.43745 | 24586 ft | 229 kts | 2° |
| 2026-04-26 07:35 | -33.21366 | 151.43757 | 24905 ft | 229 kts | 2° |
| 2026-04-26 07:35 | -33.19777 | 151.43772 | 25211 ft | 229 kts | 2° |
| 2026-04-26 07:36 | -33.18186 | 151.43786 | 25527 ft | 228 kts | 2° |
| 2026-04-26 07:36 | -33.16598 | 151.43799 | 25836 ft | 228 kts | 2° |
| 2026-04-26 07:36 | -33.15007 | 151.43811 | 26147 ft | 228 kts | 2° |
| 2026-04-26 07:36 | -33.13444 | 151.43826 | 26447 ft | 227 kts | 2° |
| 2026-04-26 07:37 | -33.11857 | 151.43839 | 26738 ft | 227 kts | 2° |
| 2026-04-26 07:37 | -33.10277 | 151.43852 | 27021 ft | 228 kts | 2° |
| 2026-04-26 07:37 | -33.08686 | 151.43865 | 27306 ft | 228 kts | 2° |
| 2026-04-26 07:37 | -33.07101 | 151.43880 | 27592 ft | 227 kts | 2° |
| 2026-04-26 07:38 | -33.05519 | 151.43894 | 27863 ft | 227 kts | 2° |
| 2026-04-26 07:38 | -33.03934 | 151.43906 | 28130 ft | 227 kts | 2° |
| 2026-04-26 07:38 | -33.02354 | 151.43922 | 28403 ft | 227 kts | 2° |
| 2026-04-26 07:38 | -33.00770 | 151.43933 | 28672 ft | 227 kts | 2° |
| 2026-04-26 07:39 | -32.99190 | 151.43946 | 28930 ft | 227 kts | 2° |
| 2026-04-26 07:39 | -32.97614 | 151.43963 | 29184 ft | 227 kts | 2° |
| 2026-04-26 07:39 | -32.96036 | 151.43976 | 29418 ft | 227 kts | 2° |
| 2026-04-26 07:39 | -32.94459 | 151.43993 | 29663 ft | 226 kts | 2° |
| 2026-04-26 07:40 | -32.92884 | 151.44009 | 29889 ft | 226 kts | 2° |
| 2026-04-26 07:40 | -32.91309 | 151.44021 | 30130 ft | 226 kts | 2° |
| 2026-04-26 07:40 | -32.89735 | 151.44036 | 30227 ft | 234 kts | 2° |
| 2026-04-26 07:40 | -32.88074 | 151.44052 | 30241 ft | 244 kts | 2° |
| 2026-04-26 07:41 | -32.86347 | 151.44067 | 30239 ft | 253 kts | 2° |
| 2026-04-26 07:41 | -32.84557 | 151.44084 | 30243 ft | 261 kts | 2° |
| 2026-04-26 07:41 | -32.83314 | 151.44096 | 30240 ft | 266 kts | 2° |
| 2026-04-26 07:41 | -32.80822 | 151.44118 | 30242 ft | 275 kts | 2° |
| 2026-04-26 07:42 | -32.79522 | 151.44130 | 30241 ft | 278 kts | 2° |
| 2026-04-26 07:42 | -32.77563 | 151.44145 | 30246 ft | 283 kts | 2° |
| 2026-04-26 07:42 | -32.75608 | 151.44164 | 30249 ft | 287 kts | 1° |
| 2026-04-26 07:42 | -32.73599 | 151.44182 | 30249 ft | 291 kts | 1° |
| 2026-04-26 07:43 | -32.71569 | 151.44199 | 30249 ft | 294 kts | 1° |
| 2026-04-26 07:43 | -32.69511 | 151.44216 | 30243 ft | 297 kts | 1° |
| 2026-04-26 07:43 | -32.67434 | 151.44234 | 30238 ft | 300 kts | 1° |
| 2026-04-26 07:44 | -32.63217 | 151.44271 | 30242 ft | 306 kts | 2° |
| 2026-04-26 07:44 | -32.58931 | 151.44308 | 30241 ft | 310 kts | 1° |
| 2026-04-26 07:45 | -32.54588 | 151.44347 | 30242 ft | 314 kts | 1° |
| 2026-04-26 07:45 | -32.50190 | 151.44385 | 30233 ft | 318 kts | 1° |
| 2026-04-26 07:46 | -32.45772 | 151.44423 | 30240 ft | 316 kts | 2° |
| 2026-04-26 07:46 | -32.41363 | 151.44461 | 30239 ft | 317 kts | 2° |
| 2026-04-26 07:47 | -32.36945 | 151.44503 | 30227 ft | 317 kts | 2° |
| 2026-04-26 07:47 | -32.32559 | 151.44540 | 30226 ft | 317 kts | 2° |
| 2026-04-26 07:48 | -32.28143 | 151.44578 | 30226 ft | 317 kts | 2° |
| 2026-04-26 07:48 | -32.23727 | 151.44616 | 30226 ft | 317 kts | 2° |
| 2026-04-26 07:49 | -32.19310 | 151.44657 | 30226 ft | 318 kts | 2° |
| 2026-04-26 07:49 | -32.14881 | 151.44694 | 30226 ft | 318 kts | 2° |
| 2026-04-26 07:50 | -32.08247 | 151.44753 | 30227 ft | 318 kts | 2° |
| 2026-04-26 07:50 | -32.03824 | 151.44793 | 30226 ft | 318 kts | 2° |
| 2026-04-26 07:51 | -31.99398 | 151.44832 | 30225 ft | 318 kts | 2° |
| 2026-04-26 07:51 | -31.94959 | 151.44871 | 30227 ft | 319 kts | 1° |
| 2026-04-26 07:52 | -31.90540 | 151.44910 | 30227 ft | 320 kts | 1° |
| 2026-04-26 07:52 | -31.86093 | 151.44949 | 30226 ft | 319 kts | 1° |
| 2026-04-26 07:53 | -31.81646 | 151.44987 | 30169 ft | 320 kts | 1° |
| 2026-04-26 07:53 | -31.79414 | 151.45007 | 29686 ft | 320 kts | 1° |
| 2026-04-26 07:53 | -31.77202 | 151.45025 | 29124 ft | 315 kts | 1° |
| 2026-04-26 07:54 | -31.75028 | 151.45043 | 28473 ft | 310 kts | 2° |
| 2026-04-26 07:54 | -31.72888 | 151.45063 | 27942 ft | 304 kts | 2° |
| 2026-04-26 07:54 | -31.70780 | 151.45082 | 27557 ft | 302 kts | 2° |
| 2026-04-26 07:54 | -31.68720 | 151.45100 | 27167 ft | 305 kts | 2° |
| 2026-04-26 07:55 | -31.66589 | 151.45119 | 26755 ft | 308 kts | 2° |
| 2026-04-26 07:55 | -31.64438 | 151.45138 | 26339 ft | 310 kts | 2° |
| 2026-04-26 07:55 | -31.62273 | 151.45155 | 25921 ft | 311 kts | 2° |
| 2026-04-26 07:55 | -31.60101 | 151.45174 | 25493 ft | 311 kts | 2° |
| 2026-04-26 07:56 | -31.57961 | 151.45194 | 25078 ft | 311 kts | 2° |
| 2026-04-26 07:56 | -31.55770 | 151.45211 | 24658 ft | 311 kts | 2° |
| 2026-04-26 07:56 | -31.53631 | 151.45228 | 24248 ft | 312 kts | 3° |
| 2026-04-26 07:56 | -31.51457 | 151.45249 | 23830 ft | 313 kts | 3° |
| 2026-04-26 07:57 | -31.49276 | 151.45268 | 23409 ft | 313 kts | 3° |
| 2026-04-26 07:57 | -31.47102 | 151.45284 | 22993 ft | 312 kts | 2° |
| 2026-04-26 07:57 | -31.44930 | 151.45303 | 22576 ft | 312 kts | 2° |
| 2026-04-26 07:57 | -31.42752 | 151.45323 | 22159 ft | 313 kts | 3° |
| 2026-04-26 07:58 | -31.40569 | 151.45342 | 21741 ft | 313 kts | 2° |
| 2026-04-26 07:58 | -31.38394 | 151.45359 | 21322 ft | 313 kts | 2° |
| 2026-04-26 07:58 | -31.36220 | 151.45379 | 20906 ft | 313 kts | 2° |
| 2026-04-26 07:58 | -31.34041 | 151.45397 | 20488 ft | 313 kts | 2° |
| 2026-04-26 07:59 | -31.31864 | 151.45416 | 20071 ft | 313 kts | 2° |
| 2026-04-26 07:59 | -31.29719 | 151.45434 | 19660 ft | 313 kts | 2° |
| 2026-04-26 07:59 | -31.27536 | 151.45453 | 19238 ft | 313 kts | 2° |
| 2026-04-26 07:59 | -31.25355 | 151.45472 | 18812 ft | 313 kts | 2° |
| 2026-04-26 08:00 | -31.23174 | 151.45490 | 18395 ft | 313 kts | 2° |
| 2026-04-26 08:00 | -31.20995 | 151.45509 | 17975 ft | 313 kts | 2° |
| 2026-04-26 08:00 | -31.18814 | 151.45529 | 17557 ft | 313 kts | 2° |
| 2026-04-26 08:00 | -31.16625 | 151.45547 | 17138 ft | 314 kts | 2° |
| 2026-04-26 08:01 | -31.14466 | 151.45567 | 16725 ft | 315 kts | 2° |
| 2026-04-26 08:01 | -31.12270 | 151.45585 | 16302 ft | 316 kts | 2° |
| 2026-04-26 08:01 | -31.10068 | 151.45603 | 15882 ft | 316 kts | 2° |
| 2026-04-26 08:01 | -31.07864 | 151.45623 | 15456 ft | 317 kts | 2° |
| 2026-04-26 08:02 | -31.05656 | 151.45643 | 15034 ft | 317 kts | 2° |
| 2026-04-26 08:02 | -31.03449 | 151.45661 | 14613 ft | 316 kts | 2° |
| 2026-04-26 08:02 | -31.01255 | 151.45679 | 14198 ft | 314 kts | 2° |
| 2026-04-26 08:02 | -30.99079 | 151.45700 | 13785 ft | 312 kts | 2° |
| 2026-04-26 08:03 | -30.96918 | 151.45717 | 13376 ft | 310 kts | 2° |
| 2026-04-26 08:03 | -30.94768 | 151.45736 | 12968 ft | 308 kts | 2° |
| 2026-04-26 08:03 | -30.92630 | 151.45756 | 12563 ft | 306 kts | 2° |
| 2026-04-26 08:03 | -30.90507 | 151.45772 | 12160 ft | 305 kts | 2° |
| 2026-04-26 08:04 | -30.88393 | 151.45790 | 11758 ft | 303 kts | 2° |
| 2026-04-26 08:04 | -30.86292 | 151.45810 | 11360 ft | 301 kts | 2° |
| 2026-04-26 08:04 | -30.84210 | 151.45827 | 10965 ft | 298 kts | 2° |
| 2026-04-26 08:04 | -30.82145 | 151.45844 | 10496 ft | 293 kts | 2° |
| 2026-04-26 08:05 | -30.80195 | 151.45856 | 10023 ft | 265 kts | 2° |
| 2026-04-26 08:05 | -30.78416 | 151.45873 | 9698 ft | 249 kts | 2° |
| 2026-04-26 08:05 | -30.76726 | 151.45891 | 9394 ft | 244 kts | 2° |
| 2026-04-26 08:05 | -30.75038 | 151.45904 | 9083 ft | 242 kts | 2° |
| 2026-04-26 08:06 | -30.73353 | 151.45919 | 8765 ft | 241 kts | 2° |
| 2026-04-26 08:06 | -30.71676 | 151.45932 | 8446 ft | 241 kts | 2° |
| 2026-04-26 08:06 | -30.70008 | 151.45859 | 8125 ft | 241 kts | 352° |
| 2026-04-26 08:06 | -30.68372 | 151.45445 | 7812 ft | 240 kts | 349° |
| 2026-04-26 08:07 | -30.66737 | 151.45058 | 7496 ft | 239 kts | 351° |
| 2026-04-26 08:07 | -30.65100 | 151.44744 | 7177 ft | 238 kts | 358° |
| 2026-04-26 08:07 | -30.63475 | 151.44959 | 6862 ft | 235 kts | 16° |
| 2026-04-26 08:07 | -30.61998 | 151.45714 | 6590 ft | 231 kts | 34° |
| 2026-04-26 08:08 | -30.60795 | 151.46914 | 6313 ft | 226 kts | 51° |
| 2026-04-26 08:08 | -30.59940 | 151.48399 | 6017 ft | 218 kts | 61° |
| 2026-04-26 08:08 | -30.59162 | 151.49882 | 5728 ft | 208 kts | 60° |
| 2026-04-26 08:08 | -30.58426 | 151.51249 | 5451 ft | 192 kts | 59° |
| 2026-04-26 08:09 | -30.57749 | 151.52521 | 5198 ft | 179 kts | 59° |
| 2026-04-26 08:09 | -30.57119 | 151.53708 | 4972 ft | 164 kts | 59° |
| 2026-04-26 08:09 | -30.56558 | 151.54761 | 4750 ft | 142 kts | 59° |
| 2026-04-26 08:09 | -30.56086 | 151.55655 | 4565 ft | 120 kts | 60° |
| 2026-04-26 08:10 | -30.55663 | 151.56453 | 4405 ft | 114 kts | 60° |
| 2026-04-26 08:10 | -30.55243 | 151.57241 | 4259 ft | 116 kts | 60° |
| 2026-04-26 08:10 | -30.54819 | 151.58043 | 4103 ft | 117 kts | 59° |
| 2026-04-26 08:10 | -30.54392 | 151.58848 | 3944 ft | 117 kts | 59° |
| 2026-04-26 08:11 | -30.53962 | 151.59652 | 3782 ft | 117 kts | 59° |
| 2026-04-26 08:11 | -30.53535 | 151.60458 | 3628 ft | 116 kts | 59° |
| 2026-04-26 08:11 | -30.53128 | 151.61229 | 3541 ft | 101 kts | 60° |
| 2026-04-26 08:11 | -30.52876 | 151.61701 | 3547 ft | 31 kts | 60° |
| 2026-04-26 08:12 | -30.52781 | 151.61884 | 3549 ft | 23 kts | 59° |
| 2026-04-26 08:12 | -30.52844 | 151.61946 | 3549 ft | 16 kts | 236° |
| 2026-04-26 08:12 | -30.52897 | 151.61849 | 3547 ft | 12 kts | 236° |
| 2026-04-26 08:12 | -30.52951 | 151.61753 | 3546 ft | 16 kts | 239° |
| 2026-04-26 08:13 | -30.53010 | 151.61638 | 3544 ft | 19 kts | 238° |
| 2026-04-26 08:13 | -30.53085 | 151.61540 | 3543 ft | 14 kts | 140° |
| 2026-04-26 08:13 | -30.53086 | 151.61576 | 3543 ft | 0 kts | 210° |